createdAt,value
2017-08-05T00:00:09.235Z,28.8
2017-08-05T00:01:11.366Z,28.7
2017-08-05T00:02:13.163Z,28.7
2017-08-05T00:03:15.293Z,28.8
2017-08-05T00:04:17.091Z,28.8
2017-08-05T00:05:18.890Z,28.7
2017-08-05T00:06:20.693Z,28.8
2017-08-05T00:07:22.872Z,28.8
2017-08-05T00:08:24.316Z,28.8
2017-08-05T00:09:26.448Z,28.8
2017-08-05T00:10:28.579Z,28.7
2017-08-05T00:11:30.378Z,28.8
2017-08-05T00:12:31.825Z,28.8
2017-08-05T00:13:33.641Z,28.8
2017-08-05T00:14:35.108Z,28.8
2017-08-05T00:15:36.573Z,28.8
2017-08-05T00:16:38.705Z,28.8
2017-08-05T00:17:40.834Z,28.8
2017-08-05T00:18:42.965Z,28.8
2017-08-05T00:19:45.095Z,28.7
2017-08-05T00:20:46.899Z,28.8
2017-08-05T00:21:48.341Z,28.8
2017-08-05T00:22:49.812Z,28.8
2017-08-05T00:23:51.943Z,28.8
2017-08-05T00:24:54.074Z,28.8
2017-08-05T00:25:55.872Z,28.7
2017-08-05T00:26:57.674Z,28.7
2017-08-05T00:27:59.805Z,28.6
2017-08-05T00:29:01.934Z,28.8
2017-08-05T00:30:03.734Z,28.8
2017-08-05T00:31:05.511Z,28.7
2017-08-05T00:32:07.642Z,28.7
2017-08-05T00:33:09.510Z,28.7
2017-08-05T00:34:11.639Z,28.7
2017-08-05T00:35:13.771Z,28.8
2017-08-05T00:36:15.237Z,28.7
2017-08-05T00:37:17.369Z,28.7
2017-08-05T00:38:19.502Z,28.8
2017-08-05T00:39:21.634Z,28.7
2017-08-05T00:40:23.434Z,28.7
2017-08-05T00:41:25.232Z,28.8
2017-08-05T00:42:27.031Z,28.7
2017-08-05T00:43:28.527Z,28.7
2017-08-05T00:44:29.647Z,28.6
2017-08-05T00:45:31.451Z,28.7
2017-08-05T00:46:33.247Z,28.7
2017-08-05T00:47:35.049Z,28.7
2017-08-05T00:48:37.180Z,28.7
2017-08-05T00:49:38.978Z,28.6
2017-08-05T00:50:40.775Z,28.7
2017-08-05T00:51:42.907Z,28.7
2017-08-05T00:52:44.683Z,28.7
2017-08-05T00:53:46.461Z,28.7
2017-08-05T00:54:47.904Z,28.7
2017-08-05T00:55:49.684Z,28.7
2017-08-05T00:56:51.813Z,28.7
2017-08-05T00:57:53.293Z,28.6
2017-08-05T00:58:55.078Z,28.6
2017-08-05T00:59:57.211Z,28.6
2017-08-05T01:00:59.368Z,28.7
2017-08-05T01:02:01.501Z,28.7
2017-08-05T01:03:03.276Z,28.7
2017-08-05T01:04:05.407Z,28.6
2017-08-05T01:05:07.537Z,28.7
2017-08-05T01:06:08.982Z,28.6
2017-08-05T01:07:11.117Z,28.7
2017-08-05T01:08:13.248Z,28.6
2017-08-05T01:09:15.378Z,28.7
2017-08-05T01:10:17.510Z,28.7
2017-08-05T01:11:19.638Z,28.6
2017-08-05T01:12:21.769Z,28.6
2017-08-05T01:13:23.896Z,28.7
2017-08-05T01:14:26.027Z,28.6
2017-08-05T01:15:27.826Z,28.7
2017-08-05T01:16:29.622Z,28.6
2017-08-05T01:17:31.086Z,28.6
2017-08-05T01:18:33.217Z,28.7
2017-08-05T01:19:35.013Z,28.6
2017-08-05T01:20:37.141Z,28.6
2017-08-05T01:21:38.585Z,28.6
2017-08-05T01:22:40.391Z,28.6
2017-08-05T01:23:42.518Z,28.6
2017-08-05T01:24:44.318Z,28.7
2017-08-05T01:25:46.449Z,28.6
2017-08-05T01:26:48.579Z,28.6
2017-08-05T01:27:50.380Z,28.6
2017-08-05T01:28:52.181Z,28.6
2017-08-05T01:29:54.309Z,28.6
2017-08-05T01:30:56.438Z,28.6
2017-08-05T01:31:58.236Z,28.7
2017-08-05T01:33:00.363Z,28.6
2017-08-05T01:34:02.165Z,28.6
2017-08-05T01:35:04.292Z,28.6
2017-08-05T01:36:06.421Z,28.6
2017-08-05T01:37:07.868Z,28.6
2017-08-05T01:38:09.667Z,28.7
2017-08-05T01:39:11.799Z,28.6
2017-08-05T01:40:13.930Z,28.6
2017-08-05T01:41:15.728Z,28.6
2017-08-05T01:42:17.509Z,28.6
2017-08-05T01:43:19.642Z,28.6
2017-08-05T01:44:21.775Z,28.6
2017-08-05T01:45:23.246Z,28.6
2017-08-05T01:46:25.376Z,28.6
2017-08-05T01:47:27.505Z,28.6
2017-08-05T01:48:28.970Z,28.6
2017-08-05T01:49:30.772Z,28.6
2017-08-05T01:50:32.568Z,28.7
2017-08-05T01:51:34.368Z,28.6
2017-08-05T01:52:36.165Z,28.6
2017-08-05T01:53:37.939Z,28.6
2017-08-05T01:54:40.069Z,28.6
2017-08-05T01:55:41.874Z,28.6
2017-08-05T01:56:43.672Z,28.6
2017-08-05T01:57:45.477Z,28.6
2017-08-05T01:58:47.251Z,28.6
2017-08-05T01:59:49.027Z,28.6
2017-08-05T02:00:50.804Z,28.6
2017-08-05T02:01:52.943Z,28.6
2017-08-05T02:02:55.081Z,28.6
2017-08-05T02:03:57.215Z,28.7
2017-08-05T02:04:58.993Z,28.6
2017-08-05T02:06:00.439Z,28.6
2017-08-05T02:07:02.570Z,28.6
2017-08-05T02:08:04.715Z,28.6
2017-08-05T02:09:06.858Z,28.6
2017-08-05T02:10:07.987Z,28.6
2017-08-05T02:11:09.786Z,28.6
2017-08-05T02:12:11.916Z,28.6
2017-08-05T02:13:13.691Z,28.7
2017-08-05T02:14:15.826Z,28.6
2017-08-05T02:15:17.602Z,28.6
2017-08-05T02:16:19.403Z,28.7
2017-08-05T02:17:21.532Z,28.6
2017-08-05T02:18:23.664Z,28.7
2017-08-05T02:19:25.796Z,28.7
2017-08-05T02:20:27.929Z,28.6
2017-08-05T02:21:29.730Z,28.5
2017-08-05T02:22:31.521Z,28.6
2017-08-05T02:23:33.651Z,28.6
2017-08-05T02:24:35.452Z,28.6
2017-08-05T02:25:36.896Z,28.6
2017-08-05T02:26:39.026Z,28.6
2017-08-05T02:27:41.155Z,28.5
2017-08-05T02:28:43.285Z,28.6
2017-08-05T02:29:45.418Z,28.6
2017-08-05T02:30:47.214Z,28.6
2017-08-05T02:31:49.348Z,28.6
2017-08-05T02:32:51.549Z,28.6
2017-08-05T02:33:52.662Z,28.6
2017-08-05T02:34:54.789Z,28.6
2017-08-05T02:35:56.923Z,28.6
2017-08-05T02:36:58.709Z,28.6
2017-08-05T02:38:00.831Z,28.5
2017-08-05T02:39:02.964Z,28.6
2017-08-05T02:40:05.124Z,28.6
2017-08-05T02:41:07.251Z,28.6
2017-08-05T02:42:08.717Z,28.7
2017-08-05T02:43:10.513Z,28.6
2017-08-05T02:44:12.312Z,28.6
2017-08-05T02:45:14.444Z,28.6
2017-08-05T02:46:15.564Z,28.6
2017-08-05T02:47:17.742Z,28.5
2017-08-05T02:48:19.526Z,28.6
2017-08-05T02:49:21.658Z,28.6
2017-08-05T02:50:23.455Z,28.6
2017-08-05T02:51:25.607Z,28.6
2017-08-05T02:52:27.739Z,28.5
2017-08-05T02:53:29.543Z,28.6
2017-08-05T02:54:31.673Z,28.7
2017-08-05T02:55:33.476Z,28.6
2017-08-05T02:56:35.608Z,28.6
2017-08-05T02:57:37.739Z,28.6
2017-08-05T02:58:39.869Z,28.5
2017-08-05T02:59:42.008Z,28.5
2017-08-05T03:00:44.133Z,28.6
2017-08-05T03:01:46.264Z,28.5
2017-08-05T03:02:47.706Z,28.6
2017-08-05T03:03:49.840Z,28.6
2017-08-05T03:04:51.974Z,28.6
2017-08-05T03:05:53.831Z,28.6
2017-08-05T03:06:55.626Z,28.5
2017-08-05T03:07:57.434Z,28.6
2017-08-05T03:08:59.563Z,28.6
2017-08-05T03:10:01.381Z,28.6
2017-08-05T03:11:03.153Z,28.5
2017-08-05T03:12:04.972Z,28.5
2017-08-05T03:13:06.412Z,28.6
2017-08-05T03:14:08.213Z,28.5
2017-08-05T03:15:10.010Z,28.6
2017-08-05T03:16:12.143Z,28.5
2017-08-05T03:17:13.939Z,28.6
2017-08-05T03:18:16.069Z,28.5
2017-08-05T03:19:18.201Z,28.6
2017-08-05T03:20:20.330Z,28.5
2017-08-05T03:21:22.131Z,28.5
2017-08-05T03:22:24.265Z,28.6
2017-08-05T03:23:26.045Z,28.5
2017-08-05T03:24:27.841Z,28.6
2017-08-05T03:25:29.972Z,28.5
2017-08-05T03:26:32.103Z,28.5
2017-08-05T03:27:34.233Z,28.5
2017-08-05T03:28:36.362Z,28.5
2017-08-05T03:29:37.828Z,28.5
2017-08-05T03:30:39.294Z,28.5
2017-08-05T03:31:41.425Z,28.5
2017-08-05T03:32:43.221Z,28.5
2017-08-05T03:33:45.385Z,28.5
2017-08-05T03:34:47.518Z,28.5
2017-08-05T03:35:49.317Z,28.5
2017-08-05T03:36:51.445Z,28.5
2017-08-05T03:37:53.580Z,28.5
2017-08-05T03:38:55.047Z,28.5
2017-08-05T03:39:57.177Z,28.5
2017-08-05T03:40:58.976Z,28.5
2017-08-05T03:42:00.442Z,28.5
2017-08-05T03:43:02.571Z,28.5
2017-08-05T03:44:04.701Z,28.5
2017-08-05T03:45:06.831Z,28.5
2017-08-05T03:46:08.631Z,28.5
2017-08-05T03:47:10.433Z,28.5
2017-08-05T03:48:12.565Z,28.5
2017-08-05T03:49:14.697Z,28.5
2017-08-05T03:50:16.828Z,28.5
2017-08-05T03:51:18.623Z,28.5
2017-08-05T03:52:20.067Z,28.6
2017-08-05T03:53:21.515Z,28.5
2017-08-05T03:54:23.650Z,28.5
2017-08-05T03:55:25.778Z,28.5
2017-08-05T03:56:27.909Z,28.5
2017-08-05T03:57:29.711Z,28.5
2017-08-05T03:58:31.841Z,28.5
2017-08-05T03:59:33.644Z,28.5
2017-08-05T04:00:35.448Z,28.5
2017-08-05T04:01:37.225Z,28.5
2017-08-05T04:02:39.029Z,28.5
2017-08-05T04:03:40.805Z,28.5
2017-08-05T04:04:42.941Z,28.5
2017-08-05T04:05:44.738Z,28.5
2017-08-05T04:06:46.513Z,28.5
2017-08-05T04:07:47.988Z,28.5
2017-08-05T04:08:49.790Z,28.5
2017-08-05T04:09:51.590Z,28.5
2017-08-05T04:10:53.374Z,28.5
2017-08-05T04:11:55.150Z,28.5
2017-08-05T04:12:56.608Z,28.5
2017-08-05T04:13:58.069Z,28.5
2017-08-05T04:14:59.866Z,28.5
2017-08-05T04:16:01.335Z,28.6
2017-08-05T04:17:03.137Z,28.5
2017-08-05T04:18:05.269Z,28.5
2017-08-05T04:19:07.044Z,28.5
2017-08-05T04:20:08.840Z,28.6
2017-08-05T04:21:09.630Z,28.5
2017-08-05T04:22:11.761Z,28.5
2017-08-05T04:23:13.889Z,28.5
2017-08-05T04:24:16.023Z,28.5
2017-08-05T04:25:18.155Z,28.6
2017-08-05T04:26:19.958Z,28.5
2017-08-05T04:27:22.087Z,28.5
2017-08-05T04:28:24.221Z,28.5
2017-08-05T04:29:26.005Z,28.5
2017-08-05T04:30:27.444Z,28.5
2017-08-05T04:31:29.247Z,28.5
2017-08-05T04:32:31.378Z,28.5
2017-08-05T04:33:32.850Z,28.5
2017-08-05T04:34:34.624Z,28.5
2017-08-05T04:35:36.754Z,28.5
2017-08-05T04:36:38.580Z,28.6
2017-08-05T04:37:40.354Z,28.5
2017-08-05T04:38:42.488Z,28.5
2017-08-05T04:39:44.615Z,28.5
2017-08-05T04:40:46.395Z,28.6
2017-08-05T04:41:47.861Z,28.5
2017-08-05T04:42:49.992Z,28.6
2017-08-05T04:43:51.793Z,28.5
2017-08-05T04:44:53.592Z,28.6
2017-08-05T04:45:55.061Z,28.5
2017-08-05T04:46:57.193Z,28.5
2017-08-05T04:47:59.325Z,28.6
2017-08-05T04:49:01.100Z,28.6
2017-08-05T04:50:03.232Z,28.5
2017-08-05T04:51:05.362Z,28.6
2017-08-05T04:52:07.495Z,28.6
2017-08-05T04:53:09.624Z,28.5
2017-08-05T04:54:11.403Z,28.5
2017-08-05T04:55:13.533Z,28.5
2017-08-05T04:56:15.002Z,28.6
2017-08-05T04:57:16.454Z,28.6
2017-08-05T04:58:18.250Z,28.5
2017-08-05T04:59:20.383Z,28.6
2017-08-05T05:00:22.180Z,28.6
2017-08-05T05:01:23.981Z,28.6
2017-08-05T05:02:25.764Z,28.5
2017-08-05T05:03:27.566Z,28.6
2017-08-05T05:04:29.364Z,28.6
2017-08-05T05:05:31.498Z,28.6
2017-08-05T05:06:32.966Z,28.5
2017-08-05T05:07:35.095Z,28.6
2017-08-05T05:08:37.222Z,28.5
2017-08-05T05:09:38.687Z,28.6
2017-08-05T05:10:40.487Z,28.6
2017-08-05T05:11:41.939Z,28.6
2017-08-05T05:12:44.073Z,28.6
2017-08-05T05:13:45.870Z,28.6
2017-08-05T05:14:47.678Z,28.6
2017-08-05T05:15:49.807Z,28.6
2017-08-05T05:16:51.608Z,28.7
2017-08-05T05:17:53.080Z,28.8
2017-08-05T05:18:55.216Z,28.9
2017-08-05T05:19:56.992Z,28.8
2017-08-05T05:20:58.793Z,29
2017-08-05T05:22:00.926Z,28.9
2017-08-05T05:23:02.727Z,28.9
2017-08-05T05:24:04.513Z,28.8
2017-08-05T05:25:06.647Z,28.8
2017-08-05T05:26:08.447Z,28.9
2017-08-05T05:27:10.224Z,29
2017-08-05T05:28:12.361Z,29
2017-08-05T05:29:14.159Z,29
2017-08-05T05:30:15.959Z,29.1
2017-08-05T05:31:17.763Z,29.1
2017-08-05T05:32:19.897Z,29.2
2017-08-05T05:33:21.341Z,29.1
2017-08-05T05:34:22.812Z,29.1
2017-08-05T05:35:24.612Z,29.2
2017-08-05T05:36:26.414Z,29.2
2017-08-05T05:37:28.598Z,29.3
2017-08-05T05:38:30.404Z,29.2
2017-08-05T05:39:32.202Z,29.1
2017-08-05T05:40:34.335Z,29.1
2017-08-05T05:41:36.472Z,29.1
2017-08-05T05:42:37.940Z,29
2017-08-05T05:43:39.737Z,29
2017-08-05T05:44:41.874Z,29
2017-08-05T05:45:43.341Z,29
2017-08-05T05:46:45.142Z,29
2017-08-05T05:47:46.610Z,29
2017-08-05T05:48:48.743Z,29
2017-08-05T05:49:50.870Z,29
2017-08-05T05:50:53.004Z,29
2017-08-05T05:51:54.782Z,28.9
2017-08-05T05:52:56.565Z,29
2017-08-05T05:53:58.366Z,28.9
2017-08-05T05:55:00.144Z,28.9
2017-08-05T05:56:02.278Z,28.8
2017-08-05T05:57:03.399Z,28.9
2017-08-05T05:58:05.197Z,28.9
2017-08-05T05:59:06.318Z,29
2017-08-05T06:00:07.458Z,29
2017-08-05T06:01:09.256Z,29.1
2017-08-05T06:02:11.035Z,29.1
2017-08-05T06:03:12.916Z,29.1
2017-08-05T06:04:14.718Z,29.1
2017-08-05T06:05:16.193Z,29.1
2017-08-05T06:06:18.327Z,29.1
2017-08-05T06:07:19.446Z,29
2017-08-05T06:08:21.249Z,29
2017-08-05T06:09:23.051Z,29.1
2017-08-05T06:10:24.851Z,29
2017-08-05T06:11:26.301Z,29
2017-08-05T06:12:27.770Z,29
2017-08-05T06:13:29.904Z,29
2017-08-05T06:14:32.040Z,29
2017-08-05T06:15:34.174Z,29
2017-08-05T06:16:35.973Z,29
2017-08-05T06:17:38.109Z,29
2017-08-05T06:18:40.241Z,29
2017-08-05T06:19:42.039Z,29
2017-08-05T06:20:43.486Z,29
2017-08-05T06:21:44.937Z,29
2017-08-05T06:22:46.820Z,29
2017-08-05T06:23:48.620Z,29
2017-08-05T06:24:50.752Z,28.9
2017-08-05T06:25:52.556Z,28.9
2017-08-05T06:26:54.691Z,29
2017-08-05T06:27:56.522Z,29
2017-08-05T06:28:57.993Z,29
2017-08-05T06:29:59.440Z,29
2017-08-05T06:31:00.575Z,29
2017-08-05T06:32:02.042Z,29
2017-08-05T06:33:04.175Z,29
2017-08-05T06:34:06.310Z,29
2017-08-05T06:35:08.112Z,29
2017-08-05T06:36:09.918Z,29.1
2017-08-05T06:37:12.054Z,29
2017-08-05T06:38:13.178Z,29
2017-08-05T06:39:14.957Z,29
2017-08-05T06:40:16.423Z,29.1
2017-08-05T06:41:18.200Z,29
2017-08-05T06:42:19.672Z,29
2017-08-05T06:43:21.115Z,29
2017-08-05T06:44:22.569Z,29.1
2017-08-05T06:45:23.680Z,29.1
2017-08-05T06:46:25.124Z,29.1
2017-08-05T06:47:27.263Z,29
2017-08-05T06:48:29.388Z,29.1
2017-08-05T06:49:30.860Z,29.1
2017-08-05T06:50:32.643Z,29.1
2017-08-05T06:51:34.111Z,29.2
2017-08-05T06:52:35.223Z,29.1
2017-08-05T06:53:37.357Z,29.2
2017-08-05T06:54:39.491Z,29.2
2017-08-05T06:55:41.626Z,29.3
2017-08-05T06:56:43.427Z,29.2
2017-08-05T06:57:45.228Z,29.2
2017-08-05T06:58:47.363Z,29.2
2017-08-05T06:59:48.834Z,29.2
2017-08-05T07:00:50.638Z,29.2
2017-08-05T07:01:52.440Z,29.2
2017-08-05T07:02:53.907Z,29.1
2017-08-05T07:03:55.369Z,29.1
2017-08-05T07:04:57.169Z,29.2
2017-08-05T07:05:58.970Z,29.1
2017-08-05T07:07:00.414Z,29.2
2017-08-05T07:08:02.213Z,29.2
2017-08-05T07:09:04.013Z,29.2
2017-08-05T07:10:05.813Z,29.1
2017-08-05T07:11:07.614Z,29.1
2017-08-05T07:12:09.412Z,29.1
2017-08-05T07:13:11.216Z,29.1
2017-08-05T07:14:13.350Z,29.2
2017-08-05T07:15:14.823Z,29.2
2017-08-05T07:16:16.630Z,29.2
2017-08-05T07:17:18.764Z,29.2
2017-08-05T07:18:20.899Z,29.2
2017-08-05T07:19:22.679Z,29.2
2017-08-05T07:20:24.481Z,29.2
2017-08-05T07:21:26.615Z,29.2
2017-08-05T07:22:28.755Z,29.2
2017-08-05T07:23:30.559Z,29.2
2017-08-05T07:24:31.998Z,29.2
2017-08-05T07:25:34.130Z,29.2
2017-08-05T07:26:36.261Z,29.2
2017-08-05T07:27:38.062Z,29.2
2017-08-05T07:28:40.195Z,29.2
2017-08-05T07:29:41.996Z,29.2
2017-08-05T07:30:44.130Z,29.2
2017-08-05T07:31:46.268Z,29.2
2017-08-05T07:32:48.398Z,29.3
2017-08-05T07:33:50.533Z,29.2
2017-08-05T07:34:51.983Z,29.3
2017-08-05T07:35:54.115Z,29.2
2017-08-05T07:36:55.587Z,29.2
2017-08-05T07:37:57.719Z,29.2
2017-08-05T07:38:59.851Z,29.3
2017-08-05T07:40:01.653Z,29.2
2017-08-05T07:41:03.785Z,29.2
2017-08-05T07:42:05.917Z,29.3
2017-08-05T07:43:08.048Z,29.3
2017-08-05T07:44:09.849Z,29.3
2017-08-05T07:45:11.980Z,29.3
2017-08-05T07:46:14.115Z,29.3
2017-08-05T07:47:16.252Z,29.3
2017-08-05T07:48:17.719Z,29.4
2017-08-05T07:49:19.183Z,29.3
2017-08-05T07:50:21.316Z,29.3
2017-08-05T07:51:23.112Z,29.4
2017-08-05T07:52:24.911Z,29.4
2017-08-05T07:53:26.381Z,29.3
2017-08-05T07:54:28.511Z,29.4
2017-08-05T07:55:29.968Z,29.3
2017-08-05T07:56:32.101Z,29.3
2017-08-05T07:57:34.234Z,29.3
2017-08-05T07:58:36.037Z,29.3
2017-08-05T07:59:37.842Z,29.3
2017-08-05T08:00:39.692Z,29.3
2017-08-05T08:01:41.827Z,29.3
2017-08-05T08:02:43.617Z,29.3
2017-08-05T08:03:45.421Z,29.3
2017-08-05T08:04:47.560Z,29.3
2017-08-05T08:05:49.362Z,29.3
2017-08-05T08:06:51.500Z,29.3
2017-08-05T08:07:53.661Z,29.3
2017-08-05T08:08:55.116Z,29.3
2017-08-05T08:09:56.591Z,29.3
2017-08-05T08:10:58.370Z,29.3
2017-08-05T08:12:00.514Z,29.3
2017-08-05T08:13:02.643Z,29.3
2017-08-05T08:14:04.425Z,29.3
2017-08-05T08:15:06.557Z,29.4
2017-08-05T08:16:08.743Z,29.3
2017-08-05T08:17:10.189Z,29.4
2017-08-05T08:18:11.989Z,29.5
2017-08-05T08:19:13.461Z,29.3
2017-08-05T08:20:14.932Z,29.3
2017-08-05T08:21:16.379Z,29.3
2017-08-05T08:22:17.827Z,29.3
2017-08-05T08:23:19.626Z,29.3
2017-08-05T08:24:21.756Z,29.2
2017-08-05T08:25:23.888Z,29.2
2017-08-05T08:26:25.690Z,29.4
2017-08-05T08:27:27.492Z,29.4
2017-08-05T08:28:29.294Z,29.3
2017-08-05T08:29:31.093Z,29.3
2017-08-05T08:30:33.222Z,29.3
2017-08-05T08:31:35.021Z,29.3
2017-08-05T08:32:36.824Z,29.3
2017-08-05T08:33:38.956Z,29.3
2017-08-05T08:34:40.758Z,29.3
2017-08-05T08:35:42.887Z,29.2
2017-08-05T08:36:44.353Z,29.3
2017-08-05T08:37:46.484Z,29.3
2017-08-05T08:38:48.266Z,29.3
2017-08-05T08:39:50.062Z,29.3
2017-08-05T08:40:51.867Z,29.3
2017-08-05T08:41:53.666Z,29.3
2017-08-05T08:42:55.803Z,29.3
2017-08-05T08:43:57.935Z,29.3
2017-08-05T08:44:59.740Z,29.3
2017-08-05T08:46:01.875Z,29.3
2017-08-05T08:47:04.009Z,29.3
2017-08-05T08:48:05.785Z,29.3
2017-08-05T08:49:07.591Z,29.3
2017-08-05T08:50:09.725Z,29.3
2017-08-05T08:51:11.859Z,29.4
2017-08-05T08:52:13.659Z,29.3
2017-08-05T08:53:15.134Z,29.4
2017-08-05T08:54:16.929Z,29.4
2017-08-05T08:55:18.733Z,29.3
2017-08-05T08:56:20.865Z,29.3
2017-08-05T08:57:22.319Z,29.4
2017-08-05T08:58:24.095Z,29.4
2017-08-05T08:59:26.228Z,29.4
2017-08-05T09:00:28.362Z,29.4
2017-08-05T09:01:30.493Z,29.4
2017-08-05T09:02:31.939Z,29.4
2017-08-05T09:03:33.407Z,29.4
2017-08-05T09:04:35.543Z,29.5
2017-08-05T09:05:37.349Z,29.5
2017-08-05T09:06:39.490Z,29.4
2017-08-05T09:07:41.297Z,29.5
2017-08-05T09:08:43.424Z,29.5
2017-08-05T09:09:45.554Z,29.4
2017-08-05T09:10:47.690Z,29.5
2017-08-05T09:11:49.824Z,29.5
2017-08-05T09:12:51.624Z,29.5
2017-08-05T09:13:53.406Z,29.5
2017-08-05T09:14:54.875Z,29.5
2017-08-05T09:15:57.011Z,29.5
2017-08-05T09:16:58.811Z,29.4
2017-08-05T09:18:00.664Z,29.4
2017-08-05T09:19:02.446Z,29.5
2017-08-05T09:20:04.582Z,29.4
2017-08-05T09:21:06.048Z,29.4
2017-08-05T09:22:08.178Z,29.4
2017-08-05T09:23:09.977Z,29.4
2017-08-05T09:24:11.780Z,29.4
2017-08-05T09:25:13.563Z,29.4
2017-08-05T09:26:15.360Z,29.4
2017-08-05T09:27:16.806Z,29.5
2017-08-05T09:28:18.601Z,29.5
2017-08-05T09:29:20.406Z,29.5
2017-08-05T09:30:22.217Z,29.5
2017-08-05T09:31:24.010Z,29.5
2017-08-05T09:32:26.142Z,29.6
2017-08-05T09:33:28.273Z,29.6
2017-08-05T09:34:29.750Z,29.6
2017-08-05T09:35:30.870Z,29.5
2017-08-05T09:36:32.646Z,29.5
2017-08-05T09:37:34.550Z,29.6
2017-08-05T09:38:35.997Z,29.6
2017-08-05T09:39:37.796Z,29.6
2017-08-05T09:40:39.926Z,29.6
2017-08-05T09:41:42.062Z,29.6
2017-08-05T09:42:43.846Z,29.6
2017-08-05T09:43:45.977Z,29.6
2017-08-05T09:44:47.438Z,29.6
2017-08-05T09:45:49.235Z,29.5
2017-08-05T09:46:51.368Z,29.7
2017-08-05T09:47:53.172Z,29.6
2017-08-05T09:48:54.625Z,29.6
2017-08-05T09:49:56.761Z,29.6
2017-08-05T09:50:58.566Z,29.7
2017-08-05T09:51:59.679Z,29.8
2017-08-05T09:53:01.461Z,29.6
2017-08-05T09:54:03.593Z,29.7
2017-08-05T09:55:05.394Z,29.7
2017-08-05T09:56:06.843Z,29.7
2017-08-05T09:57:08.625Z,29.7
2017-08-05T09:58:09.784Z,29.8
2017-08-05T09:59:11.917Z,29.7
2017-08-05T10:00:14.052Z,29.7
2017-08-05T10:01:15.852Z,29.8
2017-08-05T10:02:17.629Z,29.7
2017-08-05T10:03:19.448Z,29.8
2017-08-05T10:04:21.235Z,29.8
2017-08-05T10:05:23.372Z,29.7
2017-08-05T10:06:25.504Z,29.7
2017-08-05T10:07:26.301Z,29.7
2017-08-05T10:08:28.067Z,29.8
2017-08-05T10:09:29.843Z,29.7
2017-08-05T10:10:31.645Z,29.7
2017-08-05T10:11:33.779Z,29.7
2017-08-05T10:12:35.559Z,29.7
2017-08-05T10:13:37.695Z,29.7
2017-08-05T10:14:39.829Z,29.8
2017-08-05T10:15:41.966Z,29.8
2017-08-05T10:16:43.766Z,29.8
2017-08-05T10:17:45.568Z,29.9
2017-08-05T10:18:47.699Z,29.8
2017-08-05T10:19:49.501Z,29.8
2017-08-05T10:20:51.646Z,29.8
2017-08-05T10:21:53.443Z,29.8
2017-08-05T10:22:55.578Z,29.8
2017-08-05T10:23:57.716Z,29.9
2017-08-05T10:24:59.168Z,29.9
2017-08-05T10:26:00.977Z,29.9
2017-08-05T10:27:02.785Z,30
2017-08-05T10:28:04.914Z,29.9
2017-08-05T10:29:07.047Z,29.9
2017-08-05T10:30:08.185Z,30
2017-08-05T10:31:09.657Z,29.9
2017-08-05T10:32:11.789Z,30
2017-08-05T10:33:13.261Z,29.9
2017-08-05T10:34:14.734Z,30
2017-08-05T10:35:16.871Z,30
2017-08-05T10:36:18.678Z,29.9
2017-08-05T10:37:20.814Z,30
2017-08-05T10:38:22.618Z,29.9
2017-08-05T10:39:24.402Z,30
2017-08-05T10:40:26.188Z,30
2017-08-05T10:41:27.987Z,29.9
2017-08-05T10:42:29.436Z,30
2017-08-05T10:43:31.569Z,30
2017-08-05T10:44:33.348Z,29.9
2017-08-05T10:45:35.149Z,30
2017-08-05T10:46:36.960Z,30
2017-08-05T10:47:39.093Z,30
2017-08-05T10:48:40.896Z,30
2017-08-05T10:49:42.029Z,30
2017-08-05T10:50:43.830Z,30
2017-08-05T10:51:45.632Z,30
2017-08-05T10:52:47.417Z,30
2017-08-05T10:53:49.219Z,30
2017-08-05T10:54:51.356Z,29.9
2017-08-05T10:55:52.462Z,29.9
2017-08-05T10:56:53.929Z,29.9
2017-08-05T10:57:55.731Z,30
2017-08-05T10:58:57.202Z,30
2017-08-05T10:59:58.980Z,30
2017-08-05T11:01:00.763Z,30.1
2017-08-05T11:02:02.563Z,30
2017-08-05T11:03:04.037Z,30
2017-08-05T11:04:06.169Z,30.1
2017-08-05T11:05:07.640Z,29.9
2017-08-05T11:06:09.108Z,30
2017-08-05T11:07:10.562Z,30
2017-08-05T11:08:12.693Z,30
2017-08-05T11:09:14.827Z,30
2017-08-05T11:10:16.633Z,30
2017-08-05T11:11:18.766Z,30
2017-08-05T11:12:20.899Z,29.9
2017-08-05T11:13:23.030Z,30
2017-08-05T11:14:24.810Z,29.9
2017-08-05T11:15:26.946Z,29.9
2017-08-05T11:16:29.079Z,30
2017-08-05T11:17:31.215Z,30
2017-08-05T11:18:32.996Z,30
2017-08-05T11:19:34.805Z,30
2017-08-05T11:20:36.937Z,30
2017-08-05T11:21:39.077Z,30.1
2017-08-05T11:22:40.543Z,30
2017-08-05T11:23:42.349Z,29.9
2017-08-05T11:24:44.152Z,30
2017-08-05T11:25:45.626Z,29.9
2017-08-05T11:26:47.090Z,29.9
2017-08-05T11:27:48.892Z,29.9
2017-08-05T11:28:50.676Z,29.9
2017-08-05T11:29:52.121Z,29.9
2017-08-05T11:30:53.586Z,30
2017-08-05T11:31:55.383Z,30
2017-08-05T11:32:57.160Z,29.9
2017-08-05T11:33:58.937Z,29.9
2017-08-05T11:35:00.741Z,30
2017-08-05T11:36:02.522Z,30
2017-08-05T11:37:04.321Z,30
2017-08-05T11:38:05.439Z,30
2017-08-05T11:39:06.922Z,29.9
2017-08-05T11:40:08.723Z,30
2017-08-05T11:41:10.522Z,30
2017-08-05T11:42:12.331Z,30
2017-08-05T11:43:14.468Z,29.9
2017-08-05T11:44:16.278Z,29.9
2017-08-05T11:45:17.723Z,29.9
2017-08-05T11:46:19.505Z,29.9
2017-08-05T11:47:21.637Z,29.9
2017-08-05T11:48:23.439Z,30
2017-08-05T11:49:25.239Z,29.9
2017-08-05T11:50:27.375Z,30
2017-08-05T11:51:29.172Z,29.9
2017-08-05T11:52:31.307Z,30
2017-08-05T11:53:32.777Z,30
2017-08-05T11:54:34.578Z,29.9
2017-08-05T11:55:36.046Z,29.9
2017-08-05T11:56:37.859Z,29.9
2017-08-05T11:57:39.985Z,30
2017-08-05T11:58:42.116Z,30
2017-08-05T11:59:43.915Z,30
2017-08-05T12:00:45.723Z,29.9
2017-08-05T12:01:47.172Z,30
2017-08-05T12:02:49.308Z,29.9
2017-08-05T12:03:51.439Z,29.9
2017-08-05T12:04:53.223Z,29.9
2017-08-05T12:05:55.353Z,29.9
2017-08-05T12:06:57.148Z,30
2017-08-05T12:07:58.594Z,30
2017-08-05T12:09:00.059Z,30
2017-08-05T12:10:01.540Z,30
2017-08-05T12:11:03.672Z,30
2017-08-05T12:12:05.806Z,29.9
2017-08-05T12:13:07.276Z,29.9
2017-08-05T12:14:09.076Z,30
2017-08-05T12:15:10.880Z,29.9
2017-08-05T12:16:13.018Z,30
2017-08-05T12:17:14.462Z,30
2017-08-05T12:18:15.930Z,30
2017-08-05T12:19:17.708Z,29.9
2017-08-05T12:20:19.511Z,30
2017-08-05T12:21:21.313Z,30
2017-08-05T12:22:23.447Z,30
2017-08-05T12:23:25.248Z,30
2017-08-05T12:24:27.381Z,30
2017-08-05T12:25:29.185Z,29.9
2017-08-05T12:26:31.319Z,30
2017-08-05T12:27:33.451Z,30
2017-08-05T12:28:35.591Z,29.9
2017-08-05T12:29:37.723Z,30
2017-08-05T12:30:39.859Z,30
2017-08-05T12:31:41.663Z,30
2017-08-05T12:32:43.798Z,29.9
2017-08-05T12:33:45.603Z,29.8
2017-08-05T12:34:47.407Z,29.9
2017-08-05T12:35:49.209Z,29.9
2017-08-05T12:36:51.008Z,29.9
2017-08-05T12:37:52.456Z,29.9
2017-08-05T12:38:54.260Z,29.9
2017-08-05T12:39:56.393Z,29.9
2017-08-05T12:40:58.522Z,30
2017-08-05T12:42:00.302Z,30
2017-08-05T12:43:02.438Z,30
2017-08-05T12:44:04.573Z,29.9
2017-08-05T12:45:06.705Z,30
2017-08-05T12:46:08.844Z,30
2017-08-05T12:47:10.975Z,29.9
2017-08-05T12:48:12.782Z,30
2017-08-05T12:49:14.585Z,29.9
2017-08-05T12:50:16.060Z,30
2017-08-05T12:51:17.867Z,30
2017-08-05T12:52:19.999Z,29.9
2017-08-05T12:53:22.129Z,30
2017-08-05T12:54:23.910Z,29.9
2017-08-05T12:55:26.044Z,30
2017-08-05T12:56:27.847Z,30.1
2017-08-05T12:57:29.652Z,30
2017-08-05T12:58:31.191Z,30
2017-08-05T12:59:32.993Z,30
2017-08-05T13:00:34.470Z,30
2017-08-05T13:01:36.609Z,30
2017-08-05T13:02:38.746Z,29.9
2017-08-05T13:03:40.547Z,30
2017-08-05T13:04:42.685Z,29.9
2017-08-05T13:05:44.150Z,29.9
2017-08-05T13:06:46.285Z,30
2017-08-05T13:07:48.421Z,29.9
2017-08-05T13:08:50.605Z,30
2017-08-05T13:09:52.404Z,29.9
2017-08-05T13:10:54.539Z,29.9
2017-08-05T13:11:56.673Z,30
2017-08-05T13:12:58.453Z,29.9
2017-08-05T13:14:00.586Z,29.9
2017-08-05T13:15:02.044Z,30
2017-08-05T13:16:03.512Z,30
2017-08-05T13:17:05.643Z,30.1
2017-08-05T13:18:07.777Z,30.1
2017-08-05T13:19:09.558Z,30
2017-08-05T13:20:11.689Z,30.1
2017-08-05T13:21:13.825Z,30.1
2017-08-05T13:22:15.629Z,30.1
2017-08-05T13:23:17.435Z,30
2017-08-05T13:24:19.232Z,30.1
2017-08-05T13:25:21.037Z,30.1
2017-08-05T13:26:22.839Z,30
2017-08-05T13:27:24.972Z,30.1
2017-08-05T13:28:27.115Z,30
2017-08-05T13:29:28.917Z,30
2017-08-05T13:30:30.721Z,30
2017-08-05T13:31:32.520Z,30
2017-08-05T13:32:34.652Z,30
2017-08-05T13:33:36.453Z,30
2017-08-05T13:34:38.586Z,30.1
2017-08-05T13:35:40.721Z,30.1
2017-08-05T13:36:42.525Z,30.1
2017-08-05T13:37:44.660Z,30.1
2017-08-05T13:38:46.794Z,30.1
2017-08-05T13:39:48.595Z,30.1
2017-08-05T13:40:50.412Z,30.1
2017-08-05T13:41:52.217Z,30
2017-08-05T13:42:54.353Z,30.1
2017-08-05T13:43:55.843Z,30.1
2017-08-05T13:44:57.636Z,30
2017-08-05T13:45:59.109Z,30.1
2017-08-05T13:47:01.245Z,30
2017-08-05T13:48:02.715Z,30
2017-08-05T13:49:04.514Z,30.1
2017-08-05T13:50:05.989Z,30.1
2017-08-05T13:51:07.437Z,30.1
2017-08-05T13:52:09.216Z,30.1
2017-08-05T13:53:11.021Z,30.1